Terminal Aerodrome Forecast
Issued by NWS

Home | Current Version | Previous Version | Text Only | Print | Product List | Glossary On
Versions: 1 2 3 4 5 6 7 8 9 10 11 12 13 14 15 16 17 18
000
FTUS42 KMLB 292332
TAFFPR
TAF
KFPR 292332Z 3000/3024 02010KT P6SM FEW040
     FM300200 01006KT P6SM SKC
     FM300900 VRB03KT P6SM SKC
     FM301700 09009KT P6SM FEW040=

USA.gov is the U.S. government's official web portal to all federal, state and local government web resources and services.